Nevis, Saint Kitts and Nevis

11:11 AM AST on September 23, 2014 (GMT -0400)
Newcastle | Change Station
CLOSE
Current Station
Airport
Location: Nevis,
Elevation: 56 ft
Nearby Weather Stations

Elev 56 ft 17.21 °N, 62.59 °W | Updated 11 minutes ago

Partly Cloudy
Partly Cloudy
90 °F
Feels Like 98 °F
N
14
Wind Variable Wind from East

Today
High -- | Low -- °F
--% Chance of Precip.
Yesterday
High -- | Low -- °F
Precip. -- in
5:59 AM 6:05 PM
Waning Crescent, 0% visible
Pressure 29.98 in
Visibility 6.2 miles
Clouds Few 1500 ft
Heat Index 98 °F
Dew Point 73 °F
Humidity 59%
Rainfall 0.00 in
Snow Depth Not available.
UV 15 out of 12
Pollen Not available.
Air Quality Not available.
Flu Activity Not available.
METAR TKPN 231500Z 10012KT 9999 FEW015TCU 32/23 Q1015

More Conditions Fewer Conditions

Pressure 29.98 in
Visibility 6.2 miles
Clouds Few 1500 ft
Heat Index 98 °F
Dew Point 73 °F
Humidity 59%
Rainfall 0.00 in
Snow Depth Not available.
UV 15 out of 12
Pollen Not available.
Air Quality Not available.
Flu Activity Not available.
METAR TKPN 231500Z 10012KT 9999 FEW015TCU 32/23 Q1015

More Conditions Fewer Conditions

10-Day Weather Forecast

Almanac

Astronomy

Sep. 23, 2014 Rise Set
Actual Time 5:59 AM AST 6:05 PM AST
Civil Twilight 5:37 AM AST 6:27 PM AST
Nautical Twilight 5:12 AM AST 6:52 PM AST
Astronomical Twilight 4:47 AM AST 7:17 PM AST
Moon 5:21 AM AST 5:43 PM AST
Length of Visible Light 12h 49m
Length of Day
12h 06m
Tomorrow will be 0m 57s shorter.
Waning Crescent, 0% of the Moon is Illuminated
Today
Waning Crescent
Sep 24
New
Oct 1
First Quarter
Oct 8
Full
Oct 15
Last Quarter

Today's Extremes

Country Highs Country Lows

Community

WunderPhotos

Upload Photos

1,755,716 photos uploaded!

Nearby

Snow Depth

Not available.

Earthquake Activity

City Distance Mag. Time & Date
No recent earthquake activity has been reported nearby.
Minimum magnitude displayed is 2.5.

Coastal Water Temperatures

Place Temperature
No Stations Reporting

Nearby Weather Stations